createdAt,value
2022-10-23T00:01:45.328Z,14.40
2022-10-23T00:04:15.935Z,11.53
2022-10-23T00:06:43.445Z,8.57
2022-10-23T00:09:12.915Z,8.43
2022-10-23T00:11:41.411Z,11.40
2022-10-23T00:14:09.088Z,10.37
2022-10-23T00:16:35.997Z,16.33
2022-10-23T00:19:03.195Z,14.00
2022-10-23T00:21:29.951Z,12.07
2022-10-23T00:23:56.800Z,13.60
2022-10-23T00:26:23.644Z,16.90
2022-10-23T00:28:52.767Z,11.53
2022-10-23T00:31:26.417Z,24.53
2022-10-23T00:33:53.564Z,12.80
2022-10-23T00:36:21.667Z,11.23
2022-10-23T00:38:49.394Z,10.93
2022-10-23T00:41:28.487Z,13.47
2022-10-23T00:44:09.122Z,16.07
2022-10-23T00:46:37.886Z,18.20
2022-10-23T00:49:06.113Z,19.47
2022-10-23T00:51:38.897Z,10.53
2022-10-23T00:56:58.803Z,16.90
2022-10-23T00:59:26.690Z,14.60
2022-10-23T01:01:54.009Z,18.43
2022-10-23T01:04:22.599Z,12.07
2022-10-23T01:07:14.064Z,17.03
2022-10-23T01:09:54.532Z,10.63
2022-10-23T01:12:21.202Z,11.90
2022-10-23T01:15:25.271Z,15.07
2022-10-23T01:18:11.821Z,11.73
2022-10-23T01:20:51.506Z,13.33
2022-10-23T01:23:37.009Z,12.80
2022-10-23T01:26:22.540Z,11.23
2022-10-23T01:28:59.001Z,15.23
2022-10-23T01:31:38.267Z,12.20
2022-10-23T01:34:15.273Z,16.20
2022-10-23T01:36:47.685Z,16.10
2022-10-23T01:39:28.528Z,15.13
2022-10-23T01:42:08.582Z,16.50
2022-10-23T01:44:50.622Z,11.97
2022-10-23T01:47:23.080Z,12.77
2022-10-23T01:49:58.108Z,19.57
2022-10-23T01:52:25.495Z,16.30
2022-10-23T01:54:58.074Z,13.40
2022-10-23T01:57:27.972Z,19.87
2022-10-23T02:00:01.230Z,18.00
2022-10-23T02:02:28.916Z,20.33
2022-10-23T02:05:08.727Z,13.53
2022-10-23T02:07:36.426Z,14.67
2022-10-23T02:10:06.512Z,19.10
2022-10-23T02:12:40.363Z,18.33
2022-10-23T02:15:14.943Z,18.57
2022-10-23T02:17:54.085Z,19.70
2022-10-23T02:20:28.290Z,14.20
2022-10-23T02:23:20.870Z,16.33
2022-10-23T02:25:57.077Z,20.13
2022-10-23T02:28:28.446Z,17.83
2022-10-23T02:31:03.721Z,28.10
2022-10-23T02:33:31.766Z,13.57
2022-10-23T02:36:00.912Z,18.47
2022-10-23T02:38:37.676Z,24.27
2022-10-23T02:41:19.677Z,17.97
2022-10-23T02:43:54.776Z,15.07
2022-10-23T02:46:31.167Z,17.23
2022-10-23T02:49:09.665Z,15.90
2022-10-23T02:51:36.689Z,16.67
2022-10-23T02:54:12.036Z,14.77
2022-10-23T02:57:21.625Z,18.80
2022-10-23T03:00:00.929Z,18.90
2022-10-23T03:02:34.254Z,15.50
2022-10-23T03:05:03.036Z,17.87
2022-10-23T03:07:29.929Z,21.03
2022-10-23T03:10:04.686Z,16.40
2022-10-23T03:12:32.456Z,13.07
2022-10-23T03:14:59.216Z,14.70
2022-10-23T03:17:26.312Z,15.90
2022-10-23T03:19:56.545Z,16.33
2022-10-23T03:22:23.388Z,17.73
2022-10-23T03:24:52.658Z,18.10
2022-10-23T03:27:19.447Z,15.37
2022-10-23T03:29:46.314Z,15.77
2022-10-23T03:32:14.861Z,18.17
2022-10-23T03:34:41.933Z,14.90
2022-10-23T03:37:11.886Z,13.70
2022-10-23T03:39:39.921Z,16.73
2022-10-23T03:42:07.060Z,15.27
2022-10-23T03:44:34.507Z,17.87
2022-10-23T03:47:02.470Z,17.10
2022-10-23T03:49:29.503Z,15.43
2022-10-23T03:52:03.177Z,14.13
2022-10-23T03:54:30.181Z,19.80
2022-10-23T03:56:57.723Z,22.00
2022-10-23T03:59:27.061Z,18.20
2022-10-23T04:01:54.640Z,19.30
2022-10-23T04:04:24.093Z,16.63
2022-10-23T04:06:50.888Z,24.67
2022-10-23T04:09:19.061Z,15.43
2022-10-23T04:11:46.072Z,16.53
2022-10-23T04:14:13.478Z,18.77
2022-10-23T04:16:40.560Z,15.17
2022-10-23T04:19:07.534Z,18.57
2022-10-23T04:21:34.554Z,18.97
2022-10-23T04:24:01.413Z,17.73
2022-10-23T04:26:28.354Z,15.40
2022-10-23T04:28:55.364Z,15.30
2022-10-23T04:31:22.291Z,14.23
2022-10-23T04:33:49.539Z,14.50
2022-10-23T04:36:29.215Z,13.37
2022-10-23T04:38:59.004Z,14.87
2022-10-23T04:41:26.242Z,15.13
2022-10-23T04:43:53.049Z,14.50
2022-10-23T04:46:20.050Z,20.40
2022-10-23T04:48:49.935Z,17.63
2022-10-23T04:51:38.213Z,14.53
2022-10-23T04:54:39.084Z,16.10
2022-10-23T04:57:31.716Z,22.93
2022-10-23T05:00:06.868Z,20.90
2022-10-23T05:02:43.799Z,18.07
2022-10-23T05:05:11.409Z,16.70
2022-10-23T05:08:04.164Z,19.30
2022-10-23T05:10:51.344Z,15.83
2022-10-23T05:13:19.979Z,20.60
2022-10-23T05:15:48.876Z,19.10
2022-10-23T05:18:30.399Z,18.77
2022-10-23T05:21:02.488Z,19.57
2022-10-23T05:23:32.085Z,16.97
2022-10-23T05:26:03.272Z,23.93
2022-10-23T05:28:31.435Z,19.97
2022-10-23T05:31:00.889Z,20.37
2022-10-23T05:33:30.654Z,15.90
2022-10-23T05:35:58.722Z,21.83
2022-10-23T05:38:27.806Z,15.60
2022-10-23T05:40:55.151Z,16.70
2022-10-23T05:43:23.306Z,16.70
2022-10-23T05:45:59.375Z,20.00
2022-10-23T05:48:41.120Z,18.47
2022-10-23T05:51:26.337Z,17.70
2022-10-23T05:54:12.000Z,15.70
2022-10-23T05:56:48.168Z,20.23
2022-10-23T05:59:41.318Z,19.37
2022-10-23T06:02:43.455Z,22.10
2022-10-23T06:05:32.788Z,15.57
2022-10-23T06:08:25.406Z,19.77
2022-10-23T06:10:53.637Z,18.20
2022-10-23T06:13:20.394Z,21.57
2022-10-23T06:15:47.129Z,17.07
2022-10-23T06:18:18.889Z,15.87
2022-10-23T06:20:53.804Z,17.80
2022-10-23T06:23:25.863Z,19.13
2022-10-23T06:26:28.068Z,16.13
2022-10-23T06:29:05.842Z,18.43
2022-10-23T06:31:32.682Z,22.30
2022-10-23T06:34:00.272Z,20.53
2022-10-23T06:36:29.195Z,17.83
2022-10-23T06:39:05.922Z,18.40
2022-10-23T06:41:51.064Z,17.90
2022-10-23T06:44:37.769Z,20.47
2022-10-23T06:47:10.901Z,21.37
2022-10-23T06:49:57.696Z,18.93
2022-10-23T06:52:42.085Z,18.13
2022-10-23T06:55:13.886Z,19.60
2022-10-23T06:57:41.790Z,20.13
2022-10-23T07:00:10.319Z,20.57
2022-10-23T07:02:45.911Z,19.10
2022-10-23T07:05:13.979Z,19.83
2022-10-23T07:07:41.917Z,20.73
2022-10-23T07:10:10.407Z,21.00
2022-10-23T07:12:44.297Z,20.77
2022-10-23T07:15:43.579Z,20.87
2022-10-23T07:18:16.878Z,20.20
2022-10-23T07:21:07.142Z,21.73
2022-10-23T07:23:34.568Z,19.97
2022-10-23T07:26:09.512Z,22.73
2022-10-23T07:28:37.731Z,19.73
2022-10-23T07:31:04.937Z,22.77
2022-10-23T07:34:00.510Z,17.40
2022-10-23T07:36:27.436Z,17.43
2022-10-23T07:38:54.331Z,15.90
2022-10-23T07:41:21.464Z,23.30
2022-10-23T07:43:48.266Z,23.10
2022-10-23T07:46:15.111Z,16.80
2022-10-23T07:48:42.646Z,21.53
2022-10-23T07:51:15.566Z,20.90
2022-10-23T07:53:46.119Z,16.33
2022-10-23T07:56:35.820Z,16.80
2022-10-23T07:59:14.849Z,16.07
2022-10-23T08:01:49.504Z,14.60
2022-10-23T08:04:19.537Z,15.90
2022-10-23T08:06:56.040Z,17.13
2022-10-23T08:09:22.940Z,19.57
2022-10-23T08:11:49.959Z,17.03
2022-10-23T08:14:19.180Z,16.70
2022-10-23T08:16:47.270Z,14.97
2022-10-23T08:19:34.375Z,16.20
2022-10-23T08:22:02.741Z,13.73
2022-10-23T08:24:30.239Z,16.90
2022-10-23T08:26:57.090Z,17.00
2022-10-23T08:29:24.564Z,16.53
2022-10-23T08:31:56.294Z,12.77
2022-10-23T08:34:41.939Z,15.30
2022-10-23T08:37:09.237Z,13.50
2022-10-23T08:39:36.664Z,18.63
2022-10-23T08:42:26.492Z,17.93
2022-10-23T08:45:06.260Z,14.00
2022-10-23T08:47:49.209Z,13.27
2022-10-23T08:51:04.518Z,11.20
2022-10-23T08:53:44.094Z,12.00
2022-10-23T08:56:31.529Z,11.40
2022-10-23T08:59:15.136Z,12.80
2022-10-23T09:01:55.925Z,13.57
2022-10-23T09:04:22.827Z,13.87
2022-10-23T09:09:48.756Z,16.00
2022-10-23T09:12:21.509Z,11.70
2022-10-23T09:15:07.173Z,17.97
2022-10-23T09:17:38.010Z,9.93
2022-10-23T09:20:13.163Z,14.07
2022-10-23T09:22:42.114Z,11.87
2022-10-23T09:25:11.738Z,13.40
2022-10-23T09:27:38.467Z,12.23
2022-10-23T09:30:05.839Z,12.33
2022-10-23T09:32:35.379Z,11.93
2022-10-23T09:35:02.350Z,12.73
2022-10-23T09:37:32.098Z,11.93
2022-10-23T09:40:09.571Z,11.23
2022-10-23T09:42:36.330Z,7.68
2022-10-23T09:45:03.385Z,9.50
2022-10-23T09:47:30.382Z,10.93
2022-10-23T09:49:57.335Z,7.07
2022-10-23T09:52:26.925Z,6.50
2022-10-23T09:54:58.685Z,8.82
2022-10-23T09:57:43.024Z,5.95
2022-10-23T10:00:26.198Z,10.20
2022-10-23T10:03:03.754Z,8.52
2022-10-23T10:06:00.743Z,7.88
2022-10-23T10:08:49.128Z,10.90
2022-10-23T10:11:35.123Z,6.25
2022-10-23T10:14:14.865Z,12.85
2022-10-23T10:16:59.694Z,8.70
2022-10-23T10:19:37.756Z,9.05
2022-10-23T10:22:26.150Z,10.35
2022-10-23T10:25:01.625Z,8.00
2022-10-23T10:27:52.672Z,10.63
2022-10-23T10:30:22.490Z,8.63
2022-10-23T10:33:05.219Z,10.63
2022-10-23T10:35:31.990Z,12.98
2022-10-23T10:38:17.478Z,10.77
2022-10-23T10:41:29.214Z,10.70
2022-10-23T10:44:23.635Z,7.40
2022-10-23T10:47:11.432Z,11.88
2022-10-23T10:50:00.675Z,7.93
2022-10-23T10:53:03.205Z,9.63
2022-10-23T10:55:38.461Z,8.45
2022-10-23T10:58:17.117Z,8.63
2022-10-23T11:00:47.038Z,9.77
2022-10-23T11:03:42.507Z,8.65
2022-10-23T11:06:15.339Z,6.47
2022-10-23T11:08:57.442Z,7.13
2022-10-23T11:11:37.625Z,7.13
2022-10-23T11:14:05.080Z,6.93
2022-10-23T11:16:39.391Z,4.70
2022-10-23T11:19:24.914Z,8.98
2022-10-23T11:22:07.012Z,5.20
2022-10-23T11:24:49.138Z,6.72
2022-10-23T11:27:35.490Z,7.32
2022-10-23T11:30:26.409Z,8.07
2022-10-23T11:33:20.564Z,9.73
2022-10-23T11:36:11.139Z,7.82
2022-10-23T11:38:40.741Z,8.15
2022-10-23T11:41:27.210Z,9.05
2022-10-23T11:44:01.633Z,5.60
2022-10-23T11:46:38.951Z,7.20
2022-10-23T11:49:21.131Z,6.22
2022-10-23T11:51:48.090Z,6.97
2022-10-23T11:54:15.174Z,7.10
2022-10-23T11:56:57.186Z,6.20
2022-10-23T11:59:31.852Z,8.35
2022-10-23T12:02:02.659Z,8.00
2022-10-23T12:04:51.454Z,6.18
2022-10-23T12:07:26.323Z,9.45
2022-10-23T12:09:57.875Z,9.20
2022-10-23T12:12:28.264Z,8.60
2022-10-23T12:15:19.083Z,9.35
2022-10-23T12:17:48.761Z,5.90
2022-10-23T12:20:35.229Z,4.35
2022-10-23T12:23:06.069Z,6.40
2022-10-23T12:25:50.870Z,8.52
2022-10-23T12:28:40.007Z,4.68
2022-10-23T12:31:25.545Z,7.25
2022-10-23T12:34:01.244Z,6.40
2022-10-23T12:37:02.593Z,7.32
2022-10-23T12:39:37.303Z,10.80
2022-10-23T12:42:06.657Z,5.97
2022-10-23T12:44:33.465Z,7.25
2022-10-23T12:47:02.837Z,7.05
2022-10-23T12:49:35.450Z,7.40
2022-10-23T12:52:14.863Z,6.80
2022-10-23T12:54:43.711Z,9.30
2022-10-23T12:57:30.354Z,6.95
2022-10-23T13:00:02.584Z,6.97
2022-10-23T13:02:31.739Z,8.32
2022-10-23T13:05:02.062Z,8.05
2022-10-23T13:07:35.893Z,6.63
2022-10-23T13:10:05.636Z,6.70
2022-10-23T13:12:38.336Z,5.30
2022-10-23T13:15:07.874Z,9.95
2022-10-23T13:17:44.723Z,7.13
2022-10-23T13:20:17.639Z,8.93
2022-10-23T13:22:47.330Z,5.57
2022-10-23T13:25:41.101Z,6.72
2022-10-23T13:28:07.765Z,7.22
2022-10-23T13:30:40.276Z,5.82
2022-10-23T13:33:30.719Z,6.63
2022-10-23T13:36:21.481Z,8.25
2022-10-23T13:39:00.199Z,7.15
2022-10-23T13:41:30.457Z,9.75
2022-10-23T13:43:57.211Z,5.65
2022-10-23T13:46:27.902Z,8.77
2022-10-23T13:48:54.680Z,5.45
2022-10-23T13:51:24.190Z,5.05
2022-10-23T13:53:54.097Z,5.18
2022-10-23T13:56:22.778Z,5.88
2022-10-23T13:58:49.838Z,4.53
2022-10-23T14:01:23.658Z,4.53
2022-10-23T14:03:51.964Z,7.53
2022-10-23T14:06:21.711Z,6.97
2022-10-23T14:08:48.566Z,8.40
2022-10-23T14:11:18.087Z,13.77
2022-10-23T14:13:45.489Z,7.18
2022-10-23T14:16:14.101Z,5.78
2022-10-23T14:18:41.737Z,4.05
2022-10-23T14:21:11.221Z,7.25
2022-10-23T14:23:40.620Z,6.20
2022-10-23T14:26:10.907Z,7.00
2022-10-23T14:28:38.471Z,5.90
2022-10-23T14:31:14.365Z,5.68
2022-10-23T14:33:41.863Z,4.22
2022-10-23T14:36:09.812Z,5.30
2022-10-23T14:38:37.166Z,5.68
2022-10-23T14:41:10.509Z,6.95
2022-10-23T14:43:37.475Z,5.10
2022-10-23T14:46:16.069Z,4.88
2022-10-23T14:48:46.132Z,5.72
2022-10-23T14:51:20.351Z,4.70
2022-10-23T14:53:48.383Z,8.27
2022-10-23T14:56:16.102Z,7.05
2022-10-23T14:58:43.350Z,9.10
2022-10-23T15:01:10.833Z,7.07
2022-10-23T15:03:37.924Z,6.15
2022-10-23T15:06:06.467Z,5.65
2022-10-23T15:08:34.086Z,8.05
2022-10-23T15:11:02.256Z,6.03
2022-10-23T15:13:29.352Z,5.63
2022-10-23T15:16:07.800Z,7.00
2022-10-23T15:18:39.161Z,9.52
2022-10-23T15:21:07.747Z,3.67
2022-10-23T15:23:36.787Z,6.45
2022-10-23T15:26:07.400Z,4.43
2022-10-23T15:28:34.846Z,7.10
2022-10-23T15:31:01.887Z,7.35
2022-10-23T15:33:29.042Z,5.60
2022-10-23T15:35:56.816Z,8.00
2022-10-23T15:38:23.729Z,4.47
2022-10-23T15:40:50.564Z,6.53
2022-10-23T15:43:17.714Z,4.18
2022-10-23T15:45:45.291Z,6.75
2022-10-23T15:48:12.776Z,5.32
2022-10-23T15:50:39.540Z,6.97
2022-10-23T15:53:06.325Z,5.07
2022-10-23T15:55:33.611Z,4.45
2022-10-23T15:58:04.122Z,6.70
2022-10-23T16:03:07.741Z,10.63
2022-10-23T16:05:35.939Z,6.70
2022-10-23T16:08:02.983Z,6.95
2022-10-23T16:10:29.729Z,6.93
2022-10-23T16:12:56.545Z,3.97
2022-10-23T16:15:23.306Z,7.88
2022-10-23T16:17:50.328Z,9.63
2022-10-23T16:20:17.213Z,5.03
2022-10-23T16:22:45.090Z,6.40
2022-10-23T16:25:12.171Z,5.07
2022-10-23T16:27:39.207Z,5.97
2022-10-23T16:30:08.984Z,4.95
2022-10-23T16:32:36.436Z,4.88
2022-10-23T16:35:03.229Z,4.57
2022-10-23T16:37:39.961Z,5.07
2022-10-23T16:40:13.192Z,6.82
2022-10-23T16:42:58.866Z,4.93
2022-10-23T16:45:34.463Z,6.60
2022-10-23T16:48:03.951Z,4.88
2022-10-23T16:50:30.745Z,7.47
2022-10-23T16:52:57.517Z,5.20
2022-10-23T16:55:24.308Z,9.97
2022-10-23T16:57:51.061Z,4.32
2022-10-23T17:00:21.889Z,10.00
2022-10-23T17:02:48.784Z,5.18
2022-10-23T17:05:15.708Z,6.65
2022-10-23T17:07:42.900Z,5.40
2022-10-23T17:10:10.205Z,4.53
2022-10-23T17:12:37.553Z,4.40
2022-10-23T17:15:04.816Z,8.43
2022-10-23T17:17:31.715Z,5.22
2022-10-23T17:19:58.600Z,6.13
2022-10-23T17:22:25.536Z,6.53
2022-10-23T17:24:53.102Z,8.85
2022-10-23T17:27:20.812Z,6.80
2022-10-23T17:29:47.605Z,8.83
2022-10-23T17:32:14.525Z,8.37
2022-10-23T17:34:41.454Z,6.80
2022-10-23T17:37:09.005Z,5.07
2022-10-23T17:39:36.172Z,8.87
2022-10-23T17:42:03.005Z,6.93
2022-10-23T17:44:29.783Z,7.63
2022-10-23T17:46:56.715Z,9.47
2022-10-23T17:49:24.510Z,5.63
2022-10-23T17:51:54.021Z,4.87
2022-10-23T17:54:21.600Z,6.50
2022-10-23T17:56:48.551Z,8.37
2022-10-23T17:59:19.285Z,4.50
2022-10-23T18:01:49.022Z,6.40
2022-10-23T18:04:18.601Z,3.80
2022-10-23T18:06:48.946Z,8.27
2022-10-23T18:09:15.917Z,4.70
2022-10-23T18:11:45.509Z,5.20
2022-10-23T18:14:14.842Z,7.40
2022-10-23T18:16:41.862Z,4.15
2022-10-23T18:19:08.957Z,3.60
2022-10-23T18:21:36.449Z,5.90
2022-10-23T18:24:04.050Z,5.77
2022-10-23T18:26:35.094Z,3.87
2022-10-23T18:29:07.149Z,2.83
2022-10-23T18:31:35.885Z,3.63
2022-10-23T18:34:08.673Z,10.53
2022-10-23T18:36:39.096Z,5.67
2022-10-23T18:39:07.788Z,6.60
2022-10-23T18:41:39.465Z,4.60
2022-10-23T18:44:06.839Z,4.00
2022-10-23T18:46:34.511Z,6.47
2022-10-23T18:49:01.532Z,5.70
2022-10-23T18:51:33.777Z,4.07
2022-10-23T18:54:08.358Z,4.23
2022-10-23T18:56:36.093Z,5.25
2022-10-23T18:59:05.383Z,4.53
2022-10-23T19:01:32.651Z,6.50
2022-10-23T19:04:01.438Z,5.10
2022-10-23T19:06:29.744Z,7.07
2022-10-23T19:08:57.088Z,3.77
2022-10-23T19:11:25.889Z,4.17
2022-10-23T19:13:53.066Z,6.32
2022-10-23T19:16:23.943Z,2.90
2022-10-23T19:18:58.205Z,5.87
2022-10-23T19:21:31.158Z,3.60
2022-10-23T19:24:02.041Z,7.00
2022-10-23T19:26:32.502Z,3.50
2022-10-23T19:28:59.529Z,5.03
2022-10-23T19:31:26.950Z,6.55
2022-10-23T19:33:53.911Z,5.07
2022-10-23T19:36:23.466Z,4.75
2022-10-23T19:38:50.794Z,5.73
2022-10-23T19:41:18.840Z,5.60
2022-10-23T19:43:45.825Z,4.23
2022-10-23T19:46:12.668Z,3.70
2022-10-23T19:48:44.487Z,2.97
2022-10-23T19:51:13.455Z,4.75
2022-10-23T19:53:42.006Z,3.87
2022-10-23T19:56:10.520Z,6.78
2022-10-23T19:58:38.019Z,8.70
2022-10-23T20:01:13.609Z,5.03
2022-10-23T20:03:41.781Z,3.63
2022-10-23T20:06:13.553Z,7.32
2022-10-23T20:08:40.873Z,4.65
2022-10-23T20:11:08.574Z,4.70
2022-10-23T20:13:35.819Z,5.25
2022-10-23T20:16:02.574Z,3.50
2022-10-23T20:18:29.657Z,6.40
2022-10-23T20:20:56.474Z,5.72
2022-10-23T20:23:23.642Z,10.13
2022-10-23T20:25:50.505Z,5.72
2022-10-23T20:28:17.240Z,7.18
2022-10-23T20:30:45.998Z,4.07
2022-10-23T20:33:13.088Z,6.60
2022-10-23T20:35:41.540Z,4.78
2022-10-23T20:38:08.714Z,3.55
2022-10-23T20:40:36.038Z,3.72
2022-10-23T20:43:03.380Z,5.55
2022-10-23T20:45:30.126Z,5.15
2022-10-23T20:47:57.181Z,4.00
2022-10-23T20:50:24.225Z,6.32
2022-10-23T20:52:51.393Z,5.78
2022-10-23T20:55:19.011Z,6.70
2022-10-23T20:57:46.161Z,5.20
2022-10-23T21:00:13.558Z,6.30
2022-10-23T21:02:40.411Z,4.28
2022-10-23T21:05:07.855Z,4.47
2022-10-23T21:07:34.690Z,6.47
2022-10-23T21:10:04.004Z,8.23
2022-10-23T21:12:30.821Z,5.28
2022-10-23T21:14:58.126Z,4.03
2022-10-23T21:17:24.910Z,6.43
2022-10-23T21:19:51.777Z,3.67
2022-10-23T21:22:18.677Z,4.15
2022-10-23T21:24:45.851Z,3.92
2022-10-23T21:27:12.733Z,9.73
2022-10-23T21:29:39.454Z,4.25
2022-10-23T21:32:06.254Z,4.20
2022-10-23T21:34:34.599Z,8.02
2022-10-23T21:37:17.895Z,6.00
2022-10-23T21:39:45.852Z,4.97
2022-10-23T21:42:14.116Z,5.70
2022-10-23T21:44:40.960Z,5.05
2022-10-23T21:47:07.701Z,5.30
2022-10-23T21:49:34.469Z,3.63
2022-10-23T21:52:03.877Z,3.85
2022-10-23T21:54:30.651Z,3.03
2022-10-23T21:56:57.409Z,6.50
2022-10-23T21:59:28.952Z,3.67
2022-10-23T22:01:58.708Z,4.93
2022-10-23T22:04:25.616Z,3.20
2022-10-23T22:06:53.162Z,7.88
2022-10-23T22:09:21.231Z,3.60
2022-10-23T22:11:52.832Z,5.22
2022-10-23T22:14:20.284Z,4.38
2022-10-23T22:16:47.565Z,3.60
2022-10-23T22:19:17.086Z,4.50
2022-10-23T22:21:44.363Z,4.75
2022-10-23T22:24:11.160Z,3.58
2022-10-23T22:26:40.656Z,5.18
2022-10-23T22:29:10.883Z,6.65
2022-10-23T22:31:39.094Z,4.00
2022-10-23T22:34:18.853Z,5.53
2022-10-23T22:36:54.650Z,4.45
2022-10-23T22:39:21.806Z,6.78
2022-10-23T22:41:48.706Z,8.10
2022-10-23T22:44:15.443Z,4.78
2022-10-23T22:46:42.589Z,5.00
2022-10-23T22:49:09.542Z,3.28
2022-10-23T22:51:38.841Z,6.53
2022-10-23T22:54:05.923Z,3.67
2022-10-23T22:56:32.688Z,3.67
2022-10-23T22:58:59.394Z,4.33
2022-10-23T23:01:29.066Z,6.97
2022-10-23T23:04:00.953Z,4.70
2022-10-23T23:06:35.893Z,6.37
2022-10-23T23:09:02.647Z,3.53
2022-10-23T23:11:37.085Z,3.75
2022-10-23T23:14:12.470Z,5.20
2022-10-23T23:16:39.184Z,3.33
2022-10-23T23:19:06.064Z,9.47
2022-10-23T23:21:32.865Z,7.17
2022-10-23T23:23:59.604Z,4.53
2022-10-23T23:26:26.571Z,4.30
2022-10-23T23:28:54.554Z,4.00
2022-10-23T23:31:24.398Z,3.27
2022-10-23T23:33:52.992Z,4.50
2022-10-23T23:36:23.841Z,4.00
2022-10-23T23:38:51.006Z,5.67
2022-10-23T23:41:19.627Z,3.83
2022-10-23T23:43:46.490Z,4.10
2022-10-23T23:46:14.249Z,3.50
2022-10-23T23:48:47.073Z,4.47
2022-10-23T23:51:16.107Z,5.57
2022-10-23T23:53:43.420Z,6.57
2022-10-23T23:56:10.650Z,3.90
2022-10-23T23:58:37.487Z,6.50
